createdAt,value
2022-08-17T00:02:26.856Z,62.24
2022-08-17T00:07:30.264Z,65.76
2022-08-17T00:12:44.346Z,58.54
2022-08-17T00:17:50.920Z,62.79
2022-08-17T00:23:23.927Z,63.56
2022-08-17T00:28:27.851Z,58.38
2022-08-17T00:33:37.552Z,64.07
2022-08-17T00:38:41.034Z,62.86
2022-08-17T00:43:48.039Z,58.39
2022-08-17T00:48:51.253Z,64.32
2022-08-17T00:54:00.909Z,61.95
2022-08-17T00:59:06.516Z,58.35
2022-08-17T01:04:13.063Z,65.00
2022-08-17T01:09:18.015Z,61.11
2022-08-17T01:14:23.581Z,59.64
2022-08-17T01:19:32.638Z,65.53
2022-08-17T01:24:38.845Z,60.30
2022-08-17T01:29:46.224Z,58.30
2022-08-17T01:34:51.012Z,63.55
2022-08-17T01:40:13.316Z,63.45
2022-08-17T01:45:21.358Z,57.86
2022-08-17T01:50:32.503Z,61.42
2022-08-17T01:55:43.638Z,66.64
2022-08-17T02:01:00.457Z,62.43
2022-08-17T02:06:06.080Z,58.12
2022-08-17T02:11:29.223Z,60.25
2022-08-17T02:16:37.098Z,67.48
2022-08-17T02:21:43.227Z,61.61
2022-08-17T02:26:46.848Z,59.09
2022-08-17T02:31:49.858Z,64.51
2022-08-17T02:36:53.678Z,63.75
2022-08-17T02:42:03.397Z,58.41
2022-08-17T02:47:07.790Z,62.65
2022-08-17T02:52:10.687Z,65.32
2022-08-17T02:57:14.175Z,60.86
2022-08-17T03:02:17.619Z,57.31
2022-08-17T03:07:20.730Z,63.92
2022-08-17T03:12:24.041Z,63.38
2022-08-17T03:17:27.047Z,59.70
2022-08-17T03:22:37.116Z,64.75
2022-08-17T03:27:42.122Z,61.79
2022-08-17T03:32:53.373Z,58.62
2022-08-17T03:38:01.080Z,60.36
2022-08-17T03:43:07.069Z,67.01
2022-08-17T03:48:29.633Z,63.27
2022-08-17T03:53:51.276Z,58.51
2022-08-17T03:58:54.282Z,63.35
2022-08-17T04:03:57.314Z,61.80
2022-08-17T04:09:00.292Z,58.17
2022-08-17T04:14:04.446Z,62.67
2022-08-17T04:19:07.433Z,59.70
2022-08-17T04:24:10.658Z,55.45
2022-08-17T04:29:13.958Z,58.34
2022-08-17T04:34:19.806Z,60.09
2022-08-17T04:39:25.265Z,56.82
2022-08-17T04:44:37.743Z,57.04
2022-08-17T04:49:41.249Z,58.72
2022-08-17T04:54:44.351Z,55.39
2022-08-17T04:59:47.259Z,52.93
2022-08-17T05:04:50.364Z,48.77
2022-08-17T05:09:53.270Z,47.07
2022-08-17T05:14:56.282Z,45.74
2022-08-17T05:19:59.284Z,44.14
2022-08-17T05:25:02.784Z,44.39
2022-08-17T05:30:06.757Z,46.64
2022-08-17T05:35:09.738Z,47.05
2022-08-17T05:40:14.124Z,44.68
2022-08-17T05:45:39.971Z,42.35
2022-08-17T05:51:01.181Z,43.52
2022-08-17T05:56:32.113Z,42.68
2022-08-17T06:01:47.933Z,43.13
2022-08-17T06:07:09.866Z,42.48
2022-08-17T06:12:22.911Z,41.37
2022-08-17T06:17:28.524Z,41.90
2022-08-17T06:22:36.398Z,41.42
2022-08-17T06:27:45.246Z,40.49
2022-08-17T06:32:52.240Z,39.90
2022-08-17T06:38:37.887Z,40.96
2022-08-17T06:44:01.588Z,40.53
2022-08-17T06:49:26.882Z,39.90
2022-08-17T06:54:39.604Z,38.81
2022-08-17T07:00:14.668Z,37.77
2022-08-17T07:05:20.841Z,38.35
2022-08-17T07:10:27.431Z,37.66
2022-08-17T07:15:42.633Z,37.49
2022-08-17T07:20:50.239Z,38.25
2022-08-17T07:25:53.251Z,36.24
2022-08-17T07:30:57.292Z,36.20
2022-08-17T07:36:02.670Z,34.89
2022-08-17T07:41:10.076Z,34.57
2022-08-17T07:46:41.357Z,32.55
2022-08-17T07:51:44.426Z,33.55
2022-08-17T07:56:53.371Z,34.39
2022-08-17T08:02:02.555Z,34.51
2022-08-17T08:07:12.202Z,34.04
2022-08-17T08:12:30.558Z,34.15
2022-08-17T08:17:46.722Z,34.18
2022-08-17T08:23:18.857Z,33.57
2022-08-17T08:28:34.126Z,33.95
2022-08-17T08:33:58.093Z,32.75
2022-08-17T08:39:05.151Z,32.72
2022-08-17T08:45:00.884Z,33.16
2022-08-17T08:50:37.232Z,33.34
2022-08-17T08:55:52.580Z,35.81
2022-08-17T09:00:58.867Z,38.11
2022-08-17T09:06:37.643Z,40.45
2022-08-17T09:12:01.228Z,43.19
2022-08-17T09:17:20.981Z,45.68
2022-08-17T09:22:34.038Z,47.13
2022-08-17T09:28:00.498Z,49.23
2022-08-17T09:33:08.010Z,49.06
2022-08-17T09:38:43.924Z,49.11
2022-08-17T09:44:23.587Z,47.82
2022-08-17T09:49:40.890Z,46.81
2022-08-17T09:54:46.151Z,44.56
2022-08-17T10:00:13.362Z,45.90
2022-08-17T10:05:39.850Z,45.19
2022-08-17T10:11:07.567Z,44.10
2022-08-17T10:16:16.312Z,42.52
2022-08-17T10:21:38.717Z,42.89
2022-08-17T10:26:56.064Z,43.41
2022-08-17T10:32:08.753Z,43.73
2022-08-17T10:37:31.108Z,43.84
2022-08-17T10:42:38.230Z,44.29
2022-08-17T10:48:21.460Z,44.63
2022-08-17T10:53:33.578Z,43.52
2022-08-17T10:58:56.354Z,43.53
2022-08-17T11:04:27.928Z,43.49
2022-08-17T11:10:01.447Z,42.17
2022-08-17T11:15:17.361Z,41.82
2022-08-17T11:20:57.637Z,41.90
2022-08-17T11:26:04.226Z,42.68
2022-08-17T11:31:41.373Z,41.90
2022-08-17T11:36:56.321Z,41.36
2022-08-17T11:42:17.554Z,41.72
2022-08-17T11:48:09.441Z,42.21
2022-08-17T11:53:37.922Z,42.16
2022-08-17T11:58:44.431Z,42.18
2022-08-17T12:03:55.392Z,42.16
2022-08-17T12:09:13.044Z,41.84
2022-08-17T12:14:35.723Z,41.21
2022-08-17T12:19:45.789Z,40.87
2022-08-17T12:25:01.701Z,40.91
2022-08-17T12:30:11.559Z,41.62
2022-08-17T12:35:29.823Z,42.32
2022-08-17T12:40:33.368Z,41.93
2022-08-17T12:45:40.382Z,42.30
2022-08-17T12:50:46.226Z,42.99
2022-08-17T12:55:51.388Z,42.55
2022-08-17T13:01:01.650Z,43.55
2022-08-17T13:06:08.916Z,44.18
2022-08-17T13:11:14.934Z,44.45
2022-08-17T13:16:27.665Z,44.74
2022-08-17T13:21:35.180Z,45.16
2022-08-17T13:26:59.895Z,45.07
2022-08-17T13:32:13.114Z,45.37
2022-08-17T13:37:34.989Z,44.98
2022-08-17T13:42:53.101Z,44.33
2022-08-17T13:48:06.398Z,43.83
2022-08-17T13:53:44.636Z,42.65
2022-08-17T13:59:05.415Z,41.41
2022-08-17T14:04:20.444Z,41.25
2022-08-17T14:09:37.670Z,42.09
2022-08-17T14:14:42.845Z,42.55
2022-08-17T14:19:45.848Z,42.98
2022-08-17T14:24:48.969Z,43.96
2022-08-17T14:29:53.599Z,44.48
2022-08-17T14:34:57.970Z,44.75
2022-08-17T14:40:07.539Z,45.07
2022-08-17T14:45:31.874Z,45.24
2022-08-17T14:50:38.920Z,44.96
2022-08-17T14:55:44.674Z,44.51
2022-08-17T15:00:51.271Z,43.62
2022-08-17T15:05:58.586Z,42.70
2022-08-17T15:11:03.137Z,42.59
2022-08-17T15:16:08.788Z,43.07
2022-08-17T15:21:11.900Z,43.30
2022-08-17T15:26:17.567Z,43.94
2022-08-17T15:31:20.682Z,43.69
2022-08-17T15:36:36.012Z,44.21
2022-08-17T15:41:42.051Z,44.90
2022-08-17T15:46:45.061Z,44.57
2022-08-17T15:51:49.196Z,44.84
2022-08-17T15:56:52.198Z,44.89
2022-08-17T16:03:16.133Z,45.00
2022-08-17T16:07:26.473Z,44.91
2022-08-17T16:12:29.987Z,45.69
2022-08-17T16:17:40.029Z,46.29
2022-08-17T16:22:46.097Z,46.97
2022-08-17T16:27:53.626Z,46.61
2022-08-17T16:32:59.842Z,46.81
2022-08-17T16:38:03.123Z,47.28
2022-08-17T16:43:10.817Z,47.97
2022-08-17T16:48:15.813Z,48.50
2022-08-17T16:53:19.490Z,48.88
2022-08-17T16:58:22.888Z,49.26
2022-08-17T17:03:27.862Z,49.75
2022-08-17T17:08:38.446Z,50.43
2022-08-17T17:13:49.382Z,51.21
2022-08-17T17:19:08.370Z,51.71
2022-08-17T17:24:18.446Z,52.18
2022-08-17T17:29:48.085Z,52.57
2022-08-17T17:34:59.986Z,53.04
2022-08-17T17:40:23.123Z,53.28
2022-08-17T17:45:35.997Z,53.50
2022-08-17T17:50:49.331Z,53.55
2022-08-17T17:56:39.234Z,54.54
2022-08-17T18:02:36.639Z,54.61
2022-08-17T18:07:44.540Z,55.76
2022-08-17T18:12:55.459Z,56.00
2022-08-17T18:18:20.067Z,56.26
2022-08-17T18:23:27.902Z,56.62
2022-08-17T18:28:39.891Z,57.05
2022-08-17T18:33:49.354Z,57.12
2022-08-17T18:39:15.507Z,57.73
2022-08-17T18:44:32.729Z,57.71
2022-08-17T18:49:36.382Z,57.93
2022-08-17T18:54:39.790Z,58.65
2022-08-17T18:59:48.377Z,58.48
2022-08-17T19:05:02.902Z,57.97
2022-08-17T19:10:46.342Z,58.22
2022-08-17T19:16:15.935Z,58.86
2022-08-17T19:21:30.570Z,58.80
2022-08-17T19:26:54.246Z,62.63
2022-08-17T19:32:02.753Z,60.55
2022-08-17T19:37:24.332Z,53.85
2022-08-17T19:42:33.002Z,55.16
2022-08-17T19:48:03.410Z,57.53
2022-08-17T19:53:20.763Z,59.80
2022-08-17T19:58:42.514Z,59.57
2022-08-17T20:04:00.468Z,60.38
2022-08-17T20:09:29.665Z,63.06
2022-08-17T20:15:04.336Z,64.45
2022-08-17T20:20:41.960Z,54.80
2022-08-17T20:26:03.682Z,57.49
2022-08-17T20:31:41.012Z,59.98
2022-08-17T20:37:13.840Z,61.55
2022-08-17T20:42:22.772Z,67.14
2022-08-17T20:47:32.734Z,58.29
2022-08-17T20:52:48.034Z,59.49
2022-08-17T20:57:51.205Z,63.78
2022-08-17T21:03:22.940Z,58.00
2022-08-17T21:08:58.080Z,58.77
2022-08-17T21:14:08.687Z,60.24
2022-08-17T21:19:30.948Z,61.01
2022-08-17T21:25:17.288Z,67.94
2022-08-17T21:30:29.685Z,58.44
2022-08-17T21:35:47.409Z,60.18
2022-08-17T21:40:53.503Z,64.98
2022-08-17T21:46:10.944Z,58.20
2022-08-17T21:51:19.724Z,60.75
2022-08-17T21:56:36.478Z,61.17
2022-08-17T22:01:43.307Z,59.38
2022-08-17T22:06:52.502Z,62.68
2022-08-17T22:12:09.390Z,58.38
2022-08-17T22:17:23.358Z,63.18
2022-08-17T22:22:32.816Z,60.93
2022-08-17T22:27:52.106Z,59.08
2022-08-17T22:32:55.950Z,63.29
2022-08-17T22:38:19.080Z,58.75
2022-08-17T22:43:26.145Z,63.10
2022-08-17T22:48:31.277Z,61.86
2022-08-17T22:53:54.551Z,56.71
2022-08-17T22:59:18.547Z,59.24
2022-08-17T23:04:33.333Z,65.66
2022-08-17T23:09:36.979Z,58.35
2022-08-17T23:14:45.811Z,60.21
2022-08-17T23:19:48.803Z,66.12
2022-08-17T23:24:52.012Z,60.65
2022-08-17T23:29:55.969Z,57.22
2022-08-17T23:34:59.295Z,60.62
2022-08-17T23:40:06.503Z,66.60
2022-08-17T23:45:10.299Z,59.62
2022-08-17T23:50:16.670Z,57.73
2022-08-17T23:55:20.085Z,61.36
